Time;durP1;ratioP1;P1;durP2;ratioP2;P2;SDS_P1;SDS_P2;PMS_P1;PMS_P2;Temp;Humidity;BMP_temperature;BMP_pressure;BME280_temperature;BME280_humidity;BME280_pressure;Samples;Min_cycle;Max_cycle;Signal;HPM_P1;HPM_P2
2023/04/20 00:01:01;;;;;;;8.40;6.70;;;;;;;;;;107932;284;39602;-32
2023/04/20 00:03:36;;;;;;;9.10;6.60;;;;;;;;;;107881;284;44139;-32
2023/04/20 00:06:14;;;;;;;7.60;6.20;;;;;;;;;;107907;277;41952;-32
2023/04/20 00:08:50;;;;;;;8.20;6.50;;;;;;;;;;107861;284;38874;-32
2023/04/20 00:11:26;;;;;;;8.60;6.30;;;;;;;;;;107831;283;41144;-32
2023/04/20 00:14:01;;;;;;;8.90;6.30;;;;;;;;;;107916;284;43065;-32
2023/04/20 00:16:38;;;;;;;8.30;6.50;;;;;;;;;;107930;284;43423;-32
2023/04/20 00:19:12;;;;;;;8.50;6.50;;;;;;;;;;107905;284;44532;-32
2023/04/20 00:21:47;;;;;;;9.00;6.60;;;;;;;;;;107909;284;40891;-32
2023/04/20 00:24:22;;;;;;;8.10;6.10;;;;;;;;;;107932;282;42936;-32
2023/04/20 00:26:56;;;;;;;8.60;6.50;;;;;;;;;;107947;284;42146;-32
2023/04/20 00:29:32;;;;;;;8.20;6.40;;;;;;;;;;107929;284;44508;-32
2023/04/20 00:32:08;;;;;;;8.00;6.40;;;;;;;;;;107938;277;39502;-32
2023/04/20 00:34:45;;;;;;;8.70;6.40;;;;;;;;;;107967;277;43062;-32
2023/04/20 00:37:20;;;;;;;8.90;6.50;;;;;;;;;;107929;284;43195;-32
2023/04/20 00:39:57;;;;;;;8.00;6.80;;;;;;;;;;107884;284;44780;-32
2023/04/20 00:42:31;;;;;;;8.00;6.20;;;;;;;;;;107917;284;39509;-31
2023/04/20 00:45:10;;;;;;;8.70;6.30;;;;;;;;;;107875;284;42717;-30
2023/04/20 00:47:43;;;;;;;8.40;6.30;;;;;;;;;;107870;282;42153;-30
2023/04/20 00:50:20;;;;;;;7.50;6.20;;;;;;;;;;107920;277;38979;-30
2023/04/20 00:52:57;;;;;;;7.60;6.10;;;;;;;;;;107842;282;174628;-30
2023/04/20 00:55:34;;;;;;;8.70;6.30;;;;;;;;;;107900;284;42945;-30
2023/04/20 00:58:11;;;;;;;7.30;6.00;;;;;;;;;;107885;277;42299;-30
2023/04/20 01:00:45;;;;;;;8.00;5.90;;;;;;;;;;107901;282;38831;-30
2023/04/20 01:03:23;;;;;;;7.40;5.90;;;;;;;;;;107929;282;39932;-30
2023/04/20 01:06:01;;;;;;;7.70;6.10;;;;;;;;;;107891;277;42872;-30
2023/04/20 01:08:39;;;;;;;7.30;6.00;;;;;;;;;;107894;284;42319;-30
2023/04/20 01:11:14;;;;;;;8.30;6.10;;;;;;;;;;107943;284;38529;-30
2023/04/20 01:13:50;;;;;;;8.00;6.50;;;;;;;;;;107917;277;39960;-30
2023/04/20 01:16:25;;;;;;;7.50;5.80;;;;;;;;;;107883;284;43089;-30
2023/04/20 01:19:01;;;;;;;8.00;6.20;;;;;;;;;;107865;284;42547;-29
2023/04/20 01:21:36;;;;;;;7.60;5.90;;;;;;;;;;107857;284;38886;-29
2023/04/20 01:24:12;;;;;;;7.70;6.00;;;;;;;;;;107881;283;39858;-30
2023/04/20 01:26:47;;;;;;;7.50;5.90;;;;;;;;;;107897;284;44119;-30
2023/04/20 01:29:23;;;;;;;8.00;6.30;;;;;;;;;;107879;280;42426;-30
2023/04/20 01:31:59;;;;;;;8.30;6.20;;;;;;;;;;107905;277;39002;-29
2023/04/20 01:34:33;;;;;;;7.70;6.10;;;;;;;;;;107868;282;39735;-30
2023/04/20 01:37:09;;;;;;;8.30;6.20;;;;;;;;;;107915;285;41658;-30
2023/04/20 01:39:44;;;;;;;8.20;6.30;;;;;;;;;;107550;277;463914;-30
2023/04/20 01:42:20;;;;;;;7.40;6.20;;;;;;;;;;107934;284;38776;-30
2023/04/20 01:44:57;;;;;;;7.90;6.10;;;;;;;;;;107920;284;39733;-30
2023/04/20 01:47:33;;;;;;;8.70;6.20;;;;;;;;;;107905;282;42830;-30
2023/04/20 01:50:12;;;;;;;7.90;6.10;;;;;;;;;;107917;284;44338;-30
2023/04/20 01:52:47;;;;;;;8.50;6.10;;;;;;;;;;107833;277;38972;-30
2023/04/20 01:55:23;;;;;;;6.80;5.60;;;;;;;;;;107890;277;39728;-30
2023/04/20 01:57:58;;;;;;;7.80;6.10;;;;;;;;;;107936;282;44229;-30
2023/04/20 02:00:32;;;;;;;7.60;6.10;;;;;;;;;;107903;282;43296;-30
2023/04/20 02:03:06;;;;;;;7.10;5.70;;;;;;;;;;107917;284;40015;-30
2023/04/20 02:05:42;;;;;;;7.40;5.90;;;;;;;;;;107912;289;40228;-29
2023/04/20 02:08:18;;;;;;;7.60;5.90;;;;;;;;;;107968;277;42930;-30
2023/04/20 02:10:54;;;;;;;7.10;5.80;;;;;;;;;;107809;284;175733;-30
2023/04/20 02:13:30;;;;;;;7.70;5.80;;;;;;;;;;107954;284;38772;-30
2023/04/20 02:16:06;;;;;;;7.30;5.80;;;;;;;;;;107823;284;175673;-30
2023/04/20 02:18:44;;;;;;;6.90;5.70;;;;;;;;;;107948;284;43644;-30
2023/04/20 02:21:23;;;;;;;6.80;5.50;;;;;;;;;;107894;277;42143;-30
2023/04/20 02:23:57;;;;;;;7.70;5.70;;;;;;;;;;107858;284;38868;-30
2023/04/20 02:26:35;;;;;;;7.60;5.80;;;;;;;;;;107767;284;39716;-30
2023/04/20 02:29:10;;;;;;;7.70;5.70;;;;;;;;;;107798;284;43014;-30
2023/04/20 02:31:45;;;;;;;7.80;5.70;;;;;;;;;;107741;277;42282;-30
2023/04/20 02:34:22;;;;;;;7.30;5.60;;;;;;;;;;107766;284;38763;-30
2023/04/20 02:36:57;;;;;;;7.30;5.60;;;;;;;;;;107777;277;40044;-30
2023/04/20 02:39:33;;;;;;;6.90;5.70;;;;;;;;;;107710;277;43042;-30
2023/04/20 02:42:08;;;;;;;6.90;5.50;;;;;;;;;;107637;277;42149;-30
2023/04/20 02:44:43;;;;;;;8.00;5.70;;;;;;;;;;107764;284;39219;-30
2023/04/20 02:47:21;;;;;;;7.40;5.50;;;;;;;;;;107751;277;39692;-30
2023/04/20 02:49:57;;;;;;;6.60;5.60;;;;;;;;;;107704;277;43984;-29
2023/04/20 02:52:32;;;;;;;7.20;5.50;;;;;;;;;;107048;277;894369;-29
2023/04/20 02:55:09;;;;;;;7.50;5.80;;;;;;;;;;107074;277;896174;-29
2023/04/20 02:57:46;;;;;;;7.70;5.50;;;;;;;;;;107744;282;39765;-31
2023/04/20 03:00:22;;;;;;;7.20;5.60;;;;;;;;;;107698;277;42869;-32
2023/04/20 03:02:56;;;;;;;7.10;5.60;;;;;;;;;;107716;284;42152;-32
2023/04/20 03:05:31;;;;;;;7.30;5.60;;;;;;;;;;107710;284;38951;-32
2023/04/20 03:08:08;;;;;;;6.70;5.50;;;;;;;;;;107671;284;40011;-32
2023/04/20 03:10:46;;;;;;;7.50;5.60;;;;;;;;;;107667;282;41938;-32
2023/04/20 03:13:21;;;;;;;7.40;5.50;;;;;;;;;;107700;284;42183;-32
2023/04/20 03:15:56;;;;;;;8.40;5.50;;;;;;;;;;107699;277;38902;-32
2023/04/20 03:18:31;;;;;;;7.30;5.60;;;;;;;;;;107062;284;896251;-32
2023/04/20 03:21:06;;;;;;;7.20;5.70;;;;;;;;;;107681;277;43332;-32
2023/04/20 03:23:42;;;;;;;7.10;5.30;;;;;;;;;;107781;284;42160;-32
2023/04/20 03:26:19;;;;;;;6.80;5.20;;;;;;;;;;107771;284;39005;-32
2023/04/20 03:28:58;;;;;;;6.70;5.20;;;;;;;;;;107642;284;175752;-32
2023/04/20 03:31:32;;;;;;;6.80;5.20;;;;;;;;;;107767;282;44081;-32
2023/04/20 03:34:08;;;;;;;7.80;5.40;;;;;;;;;;107759;284;43444;-32
2023/04/20 03:36:43;;;;;;;7.60;5.30;;;;;;;;;;107784;280;38907;-32
2023/04/20 03:39:17;;;;;;;7.30;5.20;;;;;;;;;;107755;277;40770;-32
2023/04/20 03:41:52;;;;;;;6.90;5.20;;;;;;;;;;107699;284;42695;-32
2023/04/20 03:44:29;;;;;;;7.00;5.20;;;;;;;;;;107760;284;42173;-32
2023/04/20 03:47:09;;;;;;;6.60;5.00;;;;;;;;;;107775;284;38925;-32
2023/04/20 03:49:43;;;;;;;6.80;5.10;;;;;;;;;;107778;277;39897;-32
2023/04/20 03:52:19;;;;;;;7.20;5.10;;;;;;;;;;107714;284;43238;-32
2023/04/20 03:54:54;;;;;;;6.80;5.20;;;;;;;;;;107750;277;42134;-32
2023/04/20 03:57:29;;;;;;;7.20;5.40;;;;;;;;;;107708;284;38966;-32
2023/04/20 04:00:06;;;;;;;6.70;5.20;;;;;;;;;;107715;277;39706;-32
2023/04/20 04:02:43;;;;;;;7.20;5.10;;;;;;;;;;107719;277;42708;-32
2023/04/20 04:05:17;;;;;;;7.60;5.20;;;;;;;;;;107666;277;42228;-32
2023/04/20 04:07:54;;;;;;;6.70;5.10;;;;;;;;;;107697;282;38896;-32
2023/04/20 04:10:31;;;;;;;6.00;4.90;;;;;;;;;;107684;284;39754;-32
2023/04/20 04:13:06;;;;;;;7.20;5.10;;;;;;;;;;107712;284;43200;-32
2023/04/20 04:15:46;;;;;;;6.40;4.90;;;;;;;;;;107743;282;42212;-32
2023/04/20 04:18:23;;;;;;;6.70;5.00;;;;;;;;;;107940;284;39056;-32
2023/04/20 04:20:59;;;;;;;7.00;5.00;;;;;;;;;;107797;283;39707;-31
2023/04/20 04:23:33;;;;;;;6.20;4.70;;;;;;;;;;107854;277;43464;-32
2023/04/20 04:26:20;;;;;;;6.80;5.10;;;;;;;;;;107943;284;42147;-32
2023/04/20 04:28:58;;;;;;;6.70;5.20;;;;;;;;;;107957;284;38830;-32
2023/04/20 04:31:32;;;;;;;6.60;4.90;;;;;;;;;;107962;277;39728;-32
2023/04/20 04:34:09;;;;;;;6.50;4.80;;;;;;;;;;107933;285;43041;-32
2023/04/20 04:36:44;;;;;;;6.30;4.80;;;;;;;;;;107937;282;43474;-32
2023/04/20 04:39:39;;;;;;;6.10;4.40;;;;;;;;;;107806;282;175348;-32
2023/04/20 04:42:16;;;;;;;7.00;4.80;;;;;;;;;;107889;282;39779;-32
2023/04/20 04:44:54;;;;;;;6.90;5.10;;;;;;;;;;107302;284;896281;-32
2023/04/20 04:47:31;;;;;;;7.20;4.90;;;;;;;;;;107848;277;195451;-32
2023/04/20 04:50:08;;;;;;;7.10;4.70;;;;;;;;;;107957;284;38931;-32
2023/04/20 04:52:54;;;;;;;6.50;4.70;;;;;;;;;;107845;282;175347;-32
2023/04/20 04:55:28;;;;;;;7.20;5.20;;;;;;;;;;108012;284;43092;-32
2023/04/20 04:58:39;;;;;;;6.90;4.80;;;;;;;;;;107999;284;42758;-32
2023/04/20 05:01:17;;;;;;;6.20;4.40;;;;;;;;;;107830;277;175430;-32
2023/04/20 05:04:08;;;;;;;6.10;4.70;;;;;;;;;;107874;284;39744;-31
2023/04/20 05:06:54;;;;;;;6.80;5.10;;;;;;;;;;107884;284;43050;-32
2023/04/20 05:09:32;;;;;;;6.30;4.70;;;;;;;;;;107918;284;43203;-31
2023/04/20 05:12:08;;;;;;;6.70;4.80;;;;;;;;;;107900;282;38797;-31
2023/04/20 05:14:42;;;;;;;6.20;4.50;;;;;;;;;;107883;284;39922;-31
2023/04/20 05:17:18;;;;;;;6.40;4.60;;;;;;;;;;107848;284;43254;-30
2023/04/20 05:19:55;;;;;;;7.10;5.00;;;;;;;;;;107849;284;41875;-30
2023/04/20 05:22:32;;;;;;;6.20;4.60;;;;;;;;;;107810;282;38822;-30
2023/04/20 05:25:08;;;;;;;6.10;4.70;;;;;;;;;;107883;282;39756;-30
2023/04/20 05:27:47;;;;;;;7.00;5.10;;;;;;;;;;107918;285;42913;-30
2023/04/20 05:30:21;;;;;;;6.60;4.60;;;;;;;;;;107861;284;42250;-30
2023/04/20 05:32:59;;;;;;;7.10;4.70;;;;;;;;;;107892;284;38807;-30
2023/04/20 05:35:34;;;;;;;7.40;5.20;;;;;;;;;;107832;284;40996;-30
2023/04/20 05:38:09;;;;;;;6.90;4.80;;;;;;;;;;107904;284;44237;-30
2023/04/20 05:40:43;;;;;;;6.60;4.60;;;;;;;;;;107818;284;175663;-30
2023/04/20 05:43:19;;;;;;;6.70;4.90;;;;;;;;;;107906;282;38783;-30
2023/04/20 05:45:55;;;;;;;7.20;5.20;;;;;;;;;;107879;284;46683;-30
2023/04/20 05:48:32;;;;;;;7.20;4.80;;;;;;;;;;107875;277;43972;-30
2023/04/20 05:51:06;;;;;;;6.90;4.80;;;;;;;;;;107875;284;43265;-31
2023/04/20 05:53:40;;;;;;;8.90;5.20;;;;;;;;;;107905;277;40042;-31
2023/04/20 05:56:17;;;;;;;6.60;4.80;;;;;;;;;;107892;284;39708;-31
2023/04/20 05:58:55;;;;;;;6.50;4.90;;;;;;;;;;107937;284;43106;-31
2023/04/20 06:01:30;;;;;;;6.70;4.70;;;;;;;;;;107924;283;42170;-31
2023/04/20 06:04:06;;;;;;;6.70;4.70;;;;;;;;;;107892;282;38781;-31
2023/04/20 06:06:41;;;;;;;6.60;4.80;;;;;;;;;;107904;284;39714;-31
2023/04/20 06:09:15;;;;;;;7.40;5.00;;;;;;;;;;107896;284;42926;-31
2023/04/20 06:11:52;;;;;;;7.30;5.00;;;;;;;;;;107981;284;41275;-32
2023/04/20 06:14:27;;;;;;;6.60;4.80;;;;;;;;;;107646;282;175433;-32
2023/04/20 06:17:02;;;;;;;8.10;5.00;;;;;;;;;;107882;284;39829;-32
2023/04/20 06:19:38;;;;;;;6.70;4.90;;;;;;;;;;107900;284;45130;-31
2023/04/20 06:22:14;;;;;;;7.30;5.00;;;;;;;;;;107851;282;42209;-31
2023/04/20 06:24:53;;;;;;;7.70;5.10;;;;;;;;;;107823;277;39203;-31
2023/04/20 06:27:29;;;;;;;6.80;4.90;;;;;;;;;;107885;284;39711;-30
2023/04/20 06:30:04;;;;;;;7.70;5.40;;;;;;;;;;107751;277;175458;-30
2023/04/20 06:32:38;;;;;;;7.30;5.00;;;;;;;;;;107914;284;42485;-28
2023/04/20 06:35:12;;;;;;;6.90;4.80;;;;;;;;;;107514;284;41138;-29
2023/04/20 06:37:48;;;;;;;6.90;5.00;;;;;;;;;;107518;277;175318;-29
2023/04/20 06:40:21;;;;;;;7.30;5.00;;;;;;;;;;107602;284;42926;-28
2023/04/20 06:42:57;;;;;;;7.40;5.20;;;;;;;;;;107659;284;43440;-29
2023/04/20 06:45:30;;;;;;;7.00;4.70;;;;;;;;;;106926;284;896603;-29
2023/04/20 06:48:07;;;;;;;7.40;5.10;;;;;;;;;;107635;285;40884;-28
2023/04/20 06:51:00;;;;;;;7.40;5.00;;;;;;;;;;107649;277;44148;-28
2023/04/20 06:53:33;;;;;;;7.40;5.00;;;;;;;;;;107593;284;44281;-29
2023/04/20 06:56:08;;;;;;;7.60;4.70;;;;;;;;;;107582;284;38817;-29
2023/04/20 06:58:41;;;;;;;8.10;5.20;;;;;;;;;;107635;284;39710;-29
2023/04/20 07:01:15;;;;;;;8.10;5.20;;;;;;;;;;107612;284;44230;-28
2023/04/20 07:03:50;;;;;;;9.10;5.80;;;;;;;;;;107649;277;44367;-28
2023/04/20 07:06:26;;;;;;;8.90;5.60;;;;;;;;;;107676;282;40053;-30
2023/04/20 07:09:00;;;;;;;8.20;5.40;;;;;;;;;;107622;284;41073;-31
2023/04/20 07:11:34;;;;;;;8.70;5.20;;;;;;;;;;107639;284;43012;-31
2023/04/20 07:14:08;;;;;;;7.20;5.10;;;;;;;;;;107637;277;42293;-31
2023/04/20 07:16:41;;;;;;;8.40;5.50;;;;;;;;;;107607;284;39019;-31
2023/04/20 07:19:16;;;;;;;8.30;5.30;;;;;;;;;;107638;284;39698;-32
2023/04/20 07:21:50;;;;;;;7.90;5.50;;;;;;;;;;107602;284;43255;-31
2023/04/20 07:24:24;;;;;;;7.80;5.10;;;;;;;;;;107624;281;43188;-31
2023/04/20 07:26:59;;;;;;;7.80;5.30;;;;;;;;;;107593;284;38782;-31
2023/04/20 07:29:33;;;;;;;8.00;5.30;;;;;;;;;;107629;281;40162;-31
2023/04/20 07:32:08;;;;;;;8.50;5.10;;;;;;;;;;107612;282;43114;-32
2023/04/20 07:34:42;;;;;;;8.60;5.20;;;;;;;;;;107651;281;42373;-32
2023/04/20 07:37:17;;;;;;;8.50;5.10;;;;;;;;;;107574;284;38834;-32
2023/04/20 07:39:54;;;;;;;8.00;5.40;;;;;;;;;;107609;277;39763;-32
2023/04/20 07:42:27;;;;;;;7.90;5.20;;;;;;;;;;107631;282;44108;-32
2023/04/20 07:45:01;;;;;;;7.80;5.50;;;;;;;;;;107618;281;41922;-31
2023/04/20 07:47:39;;;;;;;8.00;5.40;;;;;;;;;;107593;284;39853;-31
2023/04/20 07:50:17;;;;;;;7.60;5.00;;;;;;;;;;107633;277;40888;-32
2023/04/20 07:52:53;;;;;;;7.90;5.10;;;;;;;;;;107638;277;42926;-32
2023/04/20 07:55:27;;;;;;;7.00;4.90;;;;;;;;;;107638;284;42309;-31
2023/04/20 07:58:01;;;;;;;7.00;4.90;;;;;;;;;;107589;281;40086;-31
2023/04/20 08:00:34;;;;;;;7.30;4.90;;;;;;;;;;107596;284;39737;-31
2023/04/20 08:03:11;;;;;;;7.50;5.20;;;;;;;;;;107607;277;43047;-31
2023/04/20 08:05:45;;;;;;;7.10;4.70;;;;;;;;;;107646;284;42278;-31
2023/04/20 08:08:19;;;;;;;7.90;5.10;;;;;;;;;;107611;284;39949;-31
2023/04/20 08:10:53;;;;;;;7.50;5.00;;;;;;;;;;107618;277;39671;-31
2023/04/20 08:13:28;;;;;;;7.60;5.00;;;;;;;;;;107617;284;43142;-31
2023/04/20 08:16:03;;;;;;;6.50;4.40;;;;;;;;;;107620;284;42274;-31
2023/04/20 08:18:37;;;;;;;7.10;4.60;;;;;;;;;;107565;282;38840;-31
2023/04/20 08:21:11;;;;;;;6.50;4.40;;;;;;;;;;107622;277;40303;-31
2023/04/20 08:23:47;;;;;;;7.60;4.60;;;;;;;;;;107636;277;42877;-31
2023/04/20 08:26:24;;;;;;;6.40;4.10;;;;;;;;;;107660;282;42498;-31
2023/04/20 08:28:59;;;;;;;6.80;4.50;;;;;;;;;;107591;284;40260;-31
2023/04/20 08:31:33;;;;;;;6.50;4.30;;;;;;;;;;107633;277;39756;-31
2023/04/20 08:34:07;;;;;;;7.20;4.40;;;;;;;;;;107626;285;44173;-31
2023/04/20 08:36:42;;;;;;;6.70;4.80;;;;;;;;;;107632;277;42149;-31
2023/04/20 08:39:22;;;;;;;7.30;4.80;;;;;;;;;;107590;285;38611;-31
2023/04/20 08:41:58;;;;;;;7.20;4.60;;;;;;;;;;107633;284;39838;-31
2023/04/20 08:44:33;;;;;;;8.40;4.70;;;;;;;;;;107634;277;44083;-31
2023/04/20 08:47:09;;;;;;;8.20;4.60;;;;;;;;;;107581;284;43474;-31
2023/04/20 08:49:45;;;;;;;7.30;4.50;;;;;;;;;;107595;290;45281;-31
2023/04/20 08:52:21;;;;;;;7.50;4.50;;;;;;;;;;107692;277;40961;-31
2023/04/20 08:54:54;;;;;;;7.50;4.40;;;;;;;;;;107617;277;45128;-31
2023/04/20 08:57:32;;;;;;;7.70;4.40;;;;;;;;;;107551;284;43456;-31
2023/04/20 09:00:10;;;;;;;7.20;4.40;;;;;;;;;;107613;285;38819;-31
2023/04/20 09:02:54;;;;;;;7.40;4.10;;;;;;;;;;107593;284;40813;-32
2023/04/20 09:05:34;;;;;;;7.40;4.00;;;;;;;;;;107629;284;42909;-32
2023/04/20 09:08:10;;;;;;;6.80;4.10;;;;;;;;;;107586;284;42260;-31
2023/04/20 09:10:46;;;;;;;7.20;3.80;;;;;;;;;;107610;277;38996;-31
2023/04/20 09:13:26;;;;;;;7.10;4.00;;;;;;;;;;107625;277;40963;-32
2023/04/20 09:16:09;;;;;;;7.10;3.70;;;;;;;;;;107642;282;44501;-32
2023/04/20 09:18:53;;;;;;;7.00;3.60;;;;;;;;;;107562;284;43272;-32
2023/04/20 09:21:30;;;;;;;6.00;3.80;;;;;;;;;;107611;277;40093;-32
2023/04/20 09:24:07;;;;;;;6.70;3.60;;;;;;;;;;107686;277;39697;-32
2023/04/20 09:26:42;;;;;;;6.40;3.40;;;;;;;;;;107506;277;175599;-32
2023/04/20 09:29:22;;;;;;;5.40;3.10;;;;;;;;;;107562;285;43331;-32
2023/04/20 09:31:56;;;;;;;6.30;3.30;;;;;;;;;;107569;277;38572;-32
2023/04/20 09:34:30;;;;;;;6.80;3.60;;;;;;;;;;106963;284;895917;-31
2023/04/20 09:37:07;;;;;;;6.40;3.30;;;;;;;;;;107626;277;42886;-31
2023/04/20 09:39:44;;;;;;;5.90;2.90;;;;;;;;;;107307;283;288417;-31
2023/04/20 09:42:19;;;;;;;5.90;3.20;;;;;;;;;;107598;277;38832;-32
2023/04/20 09:44:53;;;;;;;5.90;3.10;;;;;;;;;;107592;284;39703;-30
2023/04/20 09:47:28;;;;;;;6.00;3.00;;;;;;;;;;107602;284;44151;-30
2023/04/20 09:50:03;;;;;;;5.40;2.90;;;;;;;;;;107573;282;42163;-31
2023/04/20 09:52:58;;;;;;;5.70;2.60;;;;;;;;;;107586;284;38758;-31
2023/04/20 09:55:34;;;;;;;5.10;3.10;;;;;;;;;;107625;284;39845;-31
2023/04/20 09:58:08;;;;;;;6.50;2.90;;;;;;;;;;107571;277;43040;-31
2023/04/20 10:00:42;;;;;;;5.70;2.60;;;;;;;;;;107598;284;42483;-30
2023/04/20 10:03:20;;;;;;;5.80;2.70;;;;;;;;;;107606;284;39103;-30
2023/04/20 10:05:56;;;;;;;5.40;2.70;;;;;;;;;;107612;284;39701;-30
2023/04/20 10:08:39;;;;;;;5.00;2.40;;;;;;;;;;107637;281;43044;-30
2023/04/20 10:11:23;;;;;;;5.20;2.70;;;;;;;;;;107571;285;50228;-30
2023/04/20 10:13:57;;;;;;;5.60;2.50;;;;;;;;;;107629;284;38758;-30
2023/04/20 10:16:34;;;;;;;5.40;2.60;;;;;;;;;;107590;284;39978;-30
2023/04/20 10:19:07;;;;;;;4.80;2.30;;;;;;;;;;107565;282;43052;-30
2023/04/20 10:21:51;;;;;;;5.00;2.40;;;;;;;;;;107556;283;48599;-30
2023/04/20 10:24:33;;;;;;;5.20;2.40;;;;;;;;;;107617;285;38905;-30
2023/04/20 10:27:18;;;;;;;4.70;2.30;;;;;;;;;;107596;285;39681;-30
2023/04/20 10:29:51;;;;;;;5.00;2.30;;;;;;;;;;107565;283;42921;-30
2023/04/20 10:32:29;;;;;;;4.70;2.20;;;;;;;;;;107580;283;43266;-30
2023/04/20 10:35:08;;;;;;;5.10;2.40;;;;;;;;;;107664;284;38777;-30
2023/04/20 10:37:51;;;;;;;5.10;2.10;;;;;;;;;;107617;286;39449;-30
2023/04/20 10:40:29;;;;;;;4.40;2.00;;;;;;;;;;107467;285;175589;-30
2023/04/20 10:43:04;;;;;;;5.50;2.20;;;;;;;;;;107592;284;42092;-30
2023/04/20 10:45:39;;;;;;;4.40;1.90;;;;;;;;;;107617;282;38879;-30
2023/04/20 10:48:13;;;;;;;4.30;2.10;;;;;;;;;;107624;277;39511;-30
2023/04/20 10:50:50;;;;;;;4.20;2.10;;;;;;;;;;107555;285;43256;-29
2023/04/20 10:53:25;;;;;;;4.50;2.10;;;;;;;;;;107478;283;175570;-30
2023/04/20 10:56:03;;;;;;;4.40;2.00;;;;;;;;;;107605;277;38845;-30
2023/04/20 10:58:39;;;;;;;4.30;1.90;;;;;;;;;;107617;284;39877;-30
2023/04/20 11:01:13;;;;;;;4.10;2.00;;;;;;;;;;107574;285;43092;-30
2023/04/20 11:03:52;;;;;;;4.80;1.80;;;;;;;;;;107585;283;44333;-30
2023/04/20 11:06:27;;;;;;;3.70;1.70;;;;;;;;;;107545;277;175204;-30
2023/04/20 11:09:01;;;;;;;5.00;1.90;;;;;;;;;;107605;277;39813;-30
2023/04/20 11:11:36;;;;;;;4.90;1.80;;;;;;;;;;107569;285;42904;-30
2023/04/20 11:14:11;;;;;;;4.60;1.90;;;;;;;;;;107596;285;42177;-30
2023/04/20 11:16:57;;;;;;;3.80;1.80;;;;;;;;;;107667;282;38784;-29
2023/04/20 11:19:33;;;;;;;3.90;1.80;;;;;;;;;;107600;284;40910;-31
2023/04/20 11:22:07;;;;;;;4.00;1.90;;;;;;;;;;107577;283;43051;-30
2023/04/20 11:24:43;;;;;;;4.10;1.80;;;;;;;;;;107584;285;42374;-30
2023/04/20 11:27:23;;;;;;;3.60;1.70;;;;;;;;;;107622;284;39979;-30
2023/04/20 11:30:04;;;;;;;4.90;1.80;;;;;;;;;;107624;285;39778;-29
2023/04/20 11:32:38;;;;;;;3.50;1.80;;;;;;;;;;107546;284;44172;-29
2023/04/20 11:35:13;;;;;;;3.50;1.60;;;;;;;;;;107616;284;42151;-29
2023/04/20 11:37:54;;;;;;;4.20;1.80;;;;;;;;;;107621;284;38809;-29
2023/04/20 11:40:27;;;;;;;3.80;1.60;;;;;;;;;;106969;284;895457;-29
2023/04/20 11:43:03;;;;;;;4.30;1.80;;;;;;;;;;107525;285;42841;-29
2023/04/20 11:45:37;;;;;;;3.80;1.50;;;;;;;;;;107574;284;41958;-29
2023/04/20 11:48:10;;;;;;;3.20;1.60;;;;;;;;;;107591;284;38916;-29
2023/04/20 11:50:44;;;;;;;4.30;1.80;;;;;;;;;;107615;285;39992;-29
2023/04/20 11:53:19;;;;;;;3.90;1.90;;;;;;;;;;107574;282;48753;-29
2023/04/20 11:55:53;;;;;;;3.20;1.50;;;;;;;;;;107626;285;43299;-30
2023/04/20 11:58:26;;;;;;;3.60;1.80;;;;;;;;;;107578;283;40112;-30
2023/04/20 12:01:00;;;;;;;4.50;1.80;;;;;;;;;;107502;284;175252;-30
2023/04/20 12:03:33;;;;;;;4.00;1.70;;;;;;;;;;107577;285;48563;-30
2023/04/20 12:06:09;;;;;;;4.70;1.80;;;;;;;;;;107474;284;195396;-30
2023/04/20 12:08:43;;;;;;;3.40;1.50;;;;;;;;;;107584;283;38840;-30
2023/04/20 12:11:16;;;;;;;4.10;1.80;;;;;;;;;;107594;285;39720;-30
2023/04/20 12:13:50;;;;;;;3.80;1.70;;;;;;;;;;107579;277;48565;-31
2023/04/20 12:16:26;;;;;;;3.70;1.70;;;;;;;;;;107600;284;42194;-30
2023/04/20 12:19:00;;;;;;;3.40;1.60;;;;;;;;;;107625;282;38779;-29
2023/04/20 12:21:34;;;;;;;3.40;1.60;;;;;;;;;;107593;282;39803;-29
2023/04/20 12:24:09;;;;;;;3.60;1.70;;;;;;;;;;107574;284;49886;-30
2023/04/20 12:26:43;;;;;;;3.60;1.50;;;;;;;;;;107619;284;42405;-31
2023/04/20 12:29:17;;;;;;;3.90;1.70;;;;;;;;;;107584;285;38843;-31
2023/04/20 12:31:52;;;;;;;4.60;1.80;;;;;;;;;;107593;285;39873;-30
2023/04/20 12:34:27;;;;;;;3.20;1.60;;;;;;;;;;107559;285;48240;-29
2023/04/20 12:37:06;;;;;;;3.70;1.50;;;;;;;;;;107625;283;42199;-29
2023/04/20 12:39:40;;;;;;;3.60;1.60;;;;;;;;;;107597;284;38549;-30
2023/04/20 12:42:13;;;;;;;4.80;1.60;;;;;;;;;;107559;285;40892;-30
2023/04/20 12:44:50;;;;;;;3.50;1.40;;;;;;;;;;107582;277;44057;-29
2023/04/20 12:47:24;;;;;;;3.20;1.50;;;;;;;;;;107597;284;42340;-30
2023/04/20 12:49:58;;;;;;;3.50;1.50;;;;;;;;;;107591;284;39925;-30
2023/04/20 12:52:32;;;;;;;3.70;1.60;;;;;;;;;;107576;283;39696;-31
2023/04/20 12:55:08;;;;;;;3.50;1.70;;;;;;;;;;107570;285;50324;-31
2023/04/20 12:57:44;;;;;;;3.50;1.50;;;;;;;;;;107463;277;176589;-31
2023/04/20 13:00:21;;;;;;;4.40;1.60;;;;;;;;;;107614;277;39918;-30
2023/04/20 13:02:55;;;;;;;3.30;1.60;;;;;;;;;;107535;283;39449;-30
2023/04/20 13:05:31;;;;;;;3.70;1.50;;;;;;;;;;107626;284;43016;-30
2023/04/20 13:08:07;;;;;;;4.50;2.00;;;;;;;;;;107602;285;42161;-30
2023/04/20 13:10:42;;;;;;;3.60;1.60;;;;;;;;;;107622;282;38769;-30
2023/04/20 13:13:16;;;;;;;3.40;1.60;;;;;;;;;;107435;277;175226;-30
2023/04/20 13:15:50;;;;;;;3.70;1.60;;;;;;;;;;107576;285;43053;-30
2023/04/20 13:18:24;;;;;;;3.40;1.70;;;;;;;;;;107492;284;175570;-30
2023/04/20 13:20:58;;;;;;;3.30;1.60;;;;;;;;;;107612;285;38751;-30
2023/04/20 13:23:33;;;;;;;4.00;1.80;;;;;;;;;;107595;284;42030;-30
2023/04/20 13:26:10;;;;;;;3.40;1.60;;;;;;;;;;107587;282;45212;-30
2023/04/20 13:28:45;;;;;;;3.90;1.80;;;;;;;;;;107598;283;42356;-30
2023/04/20 13:31:18;;;;;;;3.80;1.60;;;;;;;;;;107568;285;38554;-30
2023/04/20 13:33:54;;;;;;;3.70;1.70;;;;;;;;;;107556;277;40064;-30
2023/04/20 13:36:28;;;;;;;4.10;1.70;;;;;;;;;;107595;284;42887;-30
2023/04/20 13:39:02;;;;;;;3.70;1.60;;;;;;;;;;107577;285;43154;-30
2023/04/20 13:41:38;;;;;;;3.20;1.60;;;;;;;;;;107627;284;39004;-30
2023/04/20 13:44:17;;;;;;;3.40;1.60;;;;;;;;;;107549;284;39725;-30
2023/04/20 13:46:52;;;;;;;3.70;1.60;;;;;;;;;;107647;277;42903;-30
2023/04/20 13:49:28;;;;;;;4.10;1.80;;;;;;;;;;107585;282;42493;-30
2023/04/20 13:52:02;;;;;;;4.10;1.70;;;;;;;;;;107630;285;38565;-30
2023/04/20 13:54:38;;;;;;;3.80;1.60;;;;;;;;;;107558;283;41850;-30
2023/04/20 13:57:12;;;;;;;3.90;1.90;;;;;;;;;;107478;286;175274;-30
2023/04/20 13:59:46;;;;;;;3.30;1.60;;;;;;;;;;107595;285;42177;-30
2023/04/20 14:02:20;;;;;;;3.40;1.80;;;;;;;;;;107596;277;39130;-30
2023/04/20 14:04:55;;;;;;;3.60;1.80;;;;;;;;;;107451;282;175176;-30
2023/04/20 14:07:28;;;;;;;3.50;1.80;;;;;;;;;;107569;284;42922;-30
2023/04/20 14:10:02;;;;;;;3.90;1.80;;;;;;;;;;107516;286;42165;-30
2023/04/20 14:12:39;;;;;;;4.00;1.90;;;;;;;;;;107616;283;38860;-30
2023/04/20 14:15:14;;;;;;;4.00;1.90;;;;;;;;;;107565;284;39761;-30
2023/04/20 14:17:48;;;;;;;4.30;1.90;;;;;;;;;;106927;285;894347;-30
2023/04/20 14:20:25;;;;;;;4.50;2.50;;;;;;;;;;107599;284;42630;-30
2023/04/20 14:22:59;;;;;;;4.60;2.20;;;;;;;;;;107567;285;39240;-30
2023/04/20 14:25:34;;;;;;;4.30;2.30;;;;;;;;;;107532;285;40006;-30
2023/04/20 14:28:10;;;;;;;4.20;2.50;;;;;;;;;;106985;285;898015;-30
2023/04/20 14:30:47;;;;;;;4.70;2.80;;;;;;;;;;107638;285;42164;-30
2023/04/20 14:33:22;;;;;;;5.70;2.80;;;;;;;;;;107615;284;38783;-30
2023/04/20 14:35:57;;;;;;;5.40;2.50;;;;;;;;;;107612;284;39980;-30
2023/04/20 14:38:33;;;;;;;4.40;2.50;;;;;;;;;;107569;284;44153;-30
2023/04/20 14:41:08;;;;;;;4.50;2.40;;;;;;;;;;107611;277;42166;-30
2023/04/20 14:43:44;;;;;;;5.40;2.50;;;;;;;;;;107630;285;38780;-30
2023/04/20 14:46:19;;;;;;;4.40;2.40;;;;;;;;;;107554;284;39848;-31
2023/04/20 14:48:54;;;;;;;4.40;2.40;;;;;;;;;;107449;285;175170;-30
2023/04/20 14:51:27;;;;;;;5.00;2.50;;;;;;;;;;107612;284;42319;-30
2023/04/20 14:54:01;;;;;;;4.90;2.50;;;;;;;;;;107586;285;38819;-30
2023/04/20 14:56:36;;;;;;;4.40;2.50;;;;;;;;;;107531;285;39712;-30
2023/04/20 14:59:09;;;;;;;4.40;2.50;;;;;;;;;;107595;285;43028;-30
2023/04/20 15:01:45;;;;;;;4.90;2.60;;;;;;;;;;107500;282;42357;-30
2023/04/20 15:04:34;;;;;;;4.60;2.30;;;;;;;;;;107576;284;39892;-30
2023/04/20 15:07:10;;;;;;;5.50;3.10;;;;;;;;;;107578;277;39703;-30
2023/04/20 15:09:43;;;;;;;4.90;2.90;;;;;;;;;;107573;285;42873;-30
2023/04/20 15:12:16;;;;;;;4.70;2.70;;;;;;;;;;107608;285;42351;-30
2023/04/20 15:14:49;;;;;;;5.40;2.80;;;;;;;;;;107592;284;38841;-30
2023/04/20 15:17:23;;;;;;;4.90;2.90;;;;;;;;;;107530;285;39739;-30
2023/04/20 15:19:56;;;;;;;5.40;2.80;;;;;;;;;;107583;277;42910;-30
2023/04/20 15:22:29;;;;;;;4.60;2.70;;;;;;;;;;107597;284;42158;-30
2023/04/20 15:25:02;;;;;;;4.80;2.90;;;;;;;;;;107583;285;38871;-30
2023/04/20 15:27:37;;;;;;;5.00;2.90;;;;;;;;;;107544;285;39906;-30
2023/04/20 15:30:13;;;;;;;4.60;2.80;;;;;;;;;;107625;286;44050;-30
2023/04/20 15:32:46;;;;;;;4.70;2.70;;;;;;;;;;107593;284;43317;-30